Chrisanthi — SX7108 — position and weather

sailwx.info

Track history (hours):
 
Tides and Currents Weather Stations Pressure Air Temp Water Temp Dewpoint Dewpoint Depression Visibility Wind Speed Wind Dir Waves Ship Positions

Chrisanthi

Last reported at 2015-Apr-18 22:14 UTC. Time now 2015-Apr-19 07:52 UTC.
Position N 37°55' E 023°05'.

Length 56 m; draft 3.9 m.

Type: Tanker. MMSI: 237009100.

Date/timePositionNaut miles runAvg speedWind from/ knotsBaromVisibWave heightAir tempDewpointWater temp
2015-Apr-18 22:14N 37°55' E 023°05'15 9.2
2015-Apr-18 20:33N 37°51' E 023°24'1010.4
2015-Apr-18 19:33N 37°50' E 023°37'10 9.9
2015-Apr-18 18:33N 37°43' E 023°45'62 2.1
2015-Apr-17 13:33N 37°27' E 024°60'11 9.9
2015-Apr-17 12:29N 37°16' E 025°04'12 2.3
2015-Apr-17 07:24N 37°05' E 025°09'0 0.0
2015-Apr-16 19:15N 37°06' E 025°08'1 0.8
2015-Apr-16 18:33N 37°05' E 025°08'8 8.3
2015-Apr-16 17:33N 37°10' E 025°16'6 5.9
2015-Apr-16 16:33N 37°06' E 025°22'1 0.7
2015-Apr-16 15:33N 37°06' E 025°21'1 0.7
2015-Apr-16 14:33N 37°06' E 025°22'0 0.0
2015-Apr-16 13:32N 37°06' E 025°22'0 0.0
2015-Apr-16 12:33N 37°06' E 025°22'0 0.2
2015-Apr-16 11:33N 37°06' E 025°22'14 6.8
2015-Apr-16 09:33N 36°55' E 025°32'3 1.6
2015-Apr-16 07:30N 36°56' E 025°36'1010.1
2015-Apr-16 06:32N 36°52' E 025°25'26 3.3
2015-Apr-15 22:33N 36°25' E 025°24'3 2.6
2015-Apr-15 21:33N 36°23' E 025°26'0 0.0
2015-Apr-15 20:32N 36°23' E 025°26'0 0.0
2015-Apr-15 19:33N 36°23' E 025°26'0 0.0
2015-Apr-15 18:32N 36°23' E 025°26'0 0.0
2015-Apr-15 17:31N 36°23' E 025°26'0 0.0
2015-Apr-15 16:33N 36°23' E 025°26'0 0.0
2015-Apr-15 15:33N 36°23' E 025°26'0 0.0
2015-Apr-15 14:32N 36°23' E 025°26'6 6.2
2015-Apr-15 13:30N 36°30' E 025°26'1010.2
2015-Apr-15 12:33N 36°31' E 025°37'1110.4
2015-Apr-15 11:32N 36°33' E 025°50'1010.0
2015-Apr-15 10:33N 36°35' E 026°02'1310.1
2015-Apr-15 09:16N 36°36' E 026°18'36 2.0
2015-Apr-14 15:33N 36°59' E 026°53'  
Track history (hours):
 
Tides and Currents Weather Stations Pressure Air Temp Water Temp Dewpoint Dewpoint Depression Visibility Wind Speed Wind Dir Waves Ship Positions

Chrisanthi

Last reported at 2015-Apr-18 22:14 UTC. Time now 2015-Apr-19 07:52 UTC.
Position N 37°55' E 023°05'.

Length 56 m; draft 3.9 m.

Type: Tanker. MMSI: 237009100.

Date/timePositionNaut miles runAvg speedWind from/ knotsBaromVisibWave heightAir tempDewpointWater temp
2015-Apr-18 22:14N 37°55' E 023°05'15 9.2
2015-Apr-18 20:33N 37°51' E 023°24'1010.4
2015-Apr-18 19:33N 37°50' E 023°37'10 9.9
2015-Apr-18 18:33N 37°43' E 023°45'62 2.1
2015-Apr-17 13:33N 37°27' E 024°60'11 9.9
2015-Apr-17 12:29N 37°16' E 025°04'12 2.3
2015-Apr-17 07:24N 37°05' E 025°09'0 0.0
2015-Apr-16 19:15N 37°06' E 025°08'1 0.8
2015-Apr-16 18:33N 37°05' E 025°08'8 8.3
2015-Apr-16 17:33N 37°10' E 025°16'6 5.9
2015-Apr-16 16:33N 37°06' E 025°22'1 0.7
2015-Apr-16 15:33N 37°06' E 025°21'1 0.7
2015-Apr-16 14:33N 37°06' E 025°22'0 0.0
2015-Apr-16 13:32N 37°06' E 025°22'0 0.0
2015-Apr-16 12:33N 37°06' E 025°22'0 0.2
2015-Apr-16 11:33N 37°06' E 025°22'14 6.8
2015-Apr-16 09:33N 36°55' E 025°32'3 1.6
2015-Apr-16 07:30N 36°56' E 025°36'1010.1
2015-Apr-16 06:32N 36°52' E 025°25'26 3.3
2015-Apr-15 22:33N 36°25' E 025°24'3 2.6
2015-Apr-15 21:33N 36°23' E 025°26'0 0.0
2015-Apr-15 20:32N 36°23' E 025°26'0 0.0
2015-Apr-15 19:33N 36°23' E 025°26'0 0.0
2015-Apr-15 18:32N 36°23' E 025°26'0 0.0
2015-Apr-15 17:31N 36°23' E 025°26'0 0.0
2015-Apr-15 16:33N 36°23' E 025°26'0 0.0
2015-Apr-15 15:33N 36°23' E 025°26'0 0.0
2015-Apr-15 14:32N 36°23' E 025°26'6 6.2
2015-Apr-15 13:30N 36°30' E 025°26'1010.2
2015-Apr-15 12:33N 36°31' E 025°37'1110.4
2015-Apr-15 11:32N 36°33' E 025°50'1010.0
2015-Apr-15 10:33N 36°35' E 026°02'1310.1
2015-Apr-15 09:16N 36°36' E 026°18'36 2.0
2015-Apr-14 15:33N 36°59' E 026°53'  

Dump ship's entire track history